Strona główna
METAR-TAF:

METAR-TAF

Lotnisko :

Geilenkirchen, Niemcy

Szerokość geograficzna: 50-57-39N, Długość geograficzna: 006-2-33E, wysokość: 90 m

Aktualna obserwacja pogody

Raport powstał 46 minut temu, godzina 21:50 UTC
Wiatr 1 kt od południe
Temperatura 12°C
Wilgotność 94%
Ciśnienie 1017 hPa
Widzialność 10 km lub więcej
Brak chmur poniżej 1500 m i brak chmur cumulonimbus

METAR: ETNG 162150Z 17001KT CAVOK 12/11 Q1017

czas: 00:36 (22:36 UTC)

Prognoza

Raport powstał 2 godziny i 36 minut temu, godzina 20:00 UTC
Prognoza ważna od 16 godzina 21 UTC do 17 godzina 12 UTC
Wiatr 3 kt z kierunków zmiennych
Widzialność 10 km lub więcej
Rozproszone chmury na wysokości 3000 ft
Stopniowe zmiany
od 17 godzina 08 UTC do 17 godzina 10 UTC
Wiatr 6 kt od wschód

TAF: ETNG 162000Z 1621/1712 VRB03KT 9999 SCT030 BECMG 1708/1710 08006KT

Obserwacja i prognoza pogody dla ponad 4000 lotnisk (raport METAR i TAF).

Dostępne stacje oznaczono żółtymi i czerwonymi punktami na mapie.

Najedź kursorem aby zobaczyć nazwę stacji.

Kliknij aby zobaczyć obserwacje i prognozy pogody.

Aby zmienić mapę: kliknij na zielony przycisk z czarnym krzyżykiem, aby powiększyć; na zielony przycisk z myślnikiem, aby pomniejszyć; na zielone strzałki, aby przejść do map sąsiednich.


METAR-TAF: